Time;durP1;ratioP1;P1;durP2;ratioP2;P2;SDS_P1;SDS_P2;PMS_P1;PMS_P2;Temp;Humidity;BMP_temperature;BMP_pressure;BME280_temperature;BME280_humidity;BME280_pressure;Samples;Min_cycle;Max_cycle;Signal;HPM_P1;HPM_P2
2023/04/09 00:01:11;;;;;;;37.95;16.67;;;8.50;99.90;;;;;;5109049;28;20079;-68
2023/04/09 00:03:37;;;;;;;38.17;15.93;;;8.50;99.90;;;;;;5094033;28;20126;-68
2023/04/09 00:06:04;;;;;;;37.65;15.43;;;8.50;99.90;;;;;;5108529;28;20048;-68
2023/04/09 00:08:30;;;;;;;42.63;16.13;;;8.50;99.90;;;;;;5113324;28;20163;-68
2023/04/09 00:10:58;;;;;;;41.50;17.38;;;8.40;99.90;;;;;;5113473;28;20122;-68
2023/04/09 00:13:25;;;;;;;36.95;16.77;;;8.40;99.90;;;;;;5113073;28;20051;-68
2023/04/09 00:15:50;;;;;;;;;;;8.50;99.90;;;;;;5107376;28;20051;-68
2023/04/09 00:18:16;;;;;;;35.38;16.05;;;8.40;99.90;;;;;;5091068;28;19920;-68
2023/04/09 00:20:43;;;;;;;39.45;16.00;;;8.40;99.90;;;;;;5092251;28;20054;-69
2023/04/09 00:23:09;;;;;;;42.90;17.67;;;8.50;99.90;;;;;;5106627;28;20039;-68
2023/04/09 00:25:35;;;;;;;45.90;16.92;;;8.40;99.90;;;;;;5113315;28;20495;-68
2023/04/09 00:28:01;;;;;;;34.60;15.73;;;8.40;99.90;;;;;;5101777;28;20048;-70
2023/04/09 00:30:30;;;;;;;41.25;16.10;;;8.40;99.90;;;;;;5074694;28;20135;-69
2023/04/09 00:32:56;;;;;;;38.05;15.10;;;8.40;99.90;;;;;;5091320;28;20043;-68
2023/04/09 00:35:22;;;;;;;;;;;8.50;99.90;;;;;;5107005;28;20772;-69
2023/04/09 00:37:47;;;;;;;40.05;15.98;;;8.40;99.90;;;;;;5100177;28;19920;-68
2023/04/09 00:40:13;;;;;;;39.53;16.95;;;8.40;99.90;;;;;;5091548;28;20042;-68
2023/04/09 00:42:40;;;;;;;41.22;17.13;;;8.40;99.90;;;;;;5094894;28;20052;-68
2023/04/09 00:45:06;;;;;;;42.17;17.08;;;8.40;99.90;;;;;;5099053;28;20118;-68
2023/04/09 00:47:34;;;;;;;39.03;15.27;;;8.40;99.90;;;;;;5072920;28;20055;-68
2023/04/09 00:50:01;;;;;;;40.15;17.67;;;8.50;99.90;;;;;;5091978;28;20044;-68
2023/04/09 00:52:29;;;;;;;40.03;16.08;;;8.50;99.90;;;;;;5104585;28;20039;-68
2023/04/09 00:54:55;;;;;;;41.92;18.23;;;8.50;99.90;;;;;;5092214;28;20059;-68
2023/04/09 00:57:21;;;;;;;38.47;16.73;;;8.40;99.90;;;;;;5091115;28;20131;-68
2023/04/09 00:59:47;;;;;;;40.67;16.48;;;8.50;99.90;;;;;;5092308;28;20132;-68
2023/04/09 01:02:12;;;;;;;46.08;19.20;;;8.50;99.90;;;;;;5090528;28;20086;-68
2023/04/09 01:04:41;;;;;;;39.85;15.80;;;8.50;99.90;;;;;;5074002;28;20055;-68
2023/04/09 01:07:19;;;;;;;38.42;15.40;;;8.50;99.90;;;;;;5093308;28;20054;-68
2023/04/09 01:10:11;;;;;;;46.63;18.27;;;8.50;99.90;;;;;;5101621;28;20043;-68
2023/04/09 01:12:50;;;;;;;40.85;17.08;;;8.50;99.90;;;;;;5112123;28;20047;-68
2023/04/09 01:15:28;;;;;;;40.20;16.88;;;8.50;99.90;;;;;;5111536;28;20051;-70
2023/04/09 01:18:04;;;;;;;42.05;18.20;;;8.40;99.90;;;;;;5097274;28;20691;-68
2023/04/09 01:20:40;;;;;;;38.83;15.88;;;8.40;99.90;;;;;;5101337;28;20036;-68
2023/04/09 01:23:57;;;;;;;41.97;18.38;;;8.40;99.90;;;;;;5095752;28;20043;-68
2023/04/09 01:26:47;;;;;;;41.10;16.23;;;8.40;99.90;;;;;;5072378;28;20492;-68
2023/04/09 01:29:15;;;;;;;39.90;16.70;;;8.30;99.90;;;;;;5097477;28;20050;-69
2023/04/09 01:31:42;;;;;;;40.05;16.45;;;8.40;99.90;;;;;;5110965;28;20092;-69
2023/04/09 01:34:09;;;;;;;42.45;18.50;;;8.30;99.90;;;;;;5110549;28;20134;-69
2023/04/09 01:36:38;;;;;;;44.65;17.15;;;8.30;99.90;;;;;;5092549;28;20400;-68
2023/04/09 01:39:05;;;;;;;43.78;16.23;;;8.30;99.90;;;;;;5111733;28;20047;-69
2023/04/09 01:41:32;;;;;;;37.35;17.23;;;8.30;99.90;;;;;;5106941;28;20062;-68
2023/04/09 01:44:00;;;;;;;37.78;16.60;;;8.20;99.90;;;;;;5091356;28;20048;-68
2023/04/09 01:46:27;;;;;;;45.78;17.20;;;8.30;99.90;;;;;;5091812;28;20047;-68
2023/04/09 01:48:54;;;;;;;41.22;17.63;;;8.20;99.90;;;;;;5109781;28;20086;-68
2023/04/09 01:51:20;;;;;;;39.58;15.55;;;8.20;99.90;;;;;;5108315;28;20047;-68
2023/04/09 01:53:45;;;;;;;37.28;16.13;;;8.20;99.90;;;;;;5101583;28;20400;-68
2023/04/09 01:56:11;;;;;;;42.28;16.80;;;8.30;99.90;;;;;;5110978;28;20043;-68
2023/04/09 01:58:37;;;;;;;38.80;16.67;;;8.30;99.90;;;;;;5111387;28;20100;-68
2023/04/09 02:01:10;;;;;;;37.38;15.35;;;8.30;99.90;;;;;;5102402;28;20066;-68
2023/04/09 02:03:45;;;;;;;39.45;15.43;;;8.30;99.90;;;;;;5090140;28;20097;-69
2023/04/09 02:06:22;;;;;;;37.00;16.10;;;8.30;99.90;;;;;;5089215;28;20493;-69
2023/04/09 02:08:50;;;;;;;;;;;8.30;99.90;;;;;;5084454;28;20055;-68
2023/04/09 02:11:16;;;;;;;33.70;14.50;;;8.30;99.90;;;;;;5073637;28;19927;-68
2023/04/09 02:13:43;;;;;;;38.13;14.68;;;8.30;99.90;;;;;;5103589;28;20093;-68
2023/04/09 02:16:11;;;;;;;38.35;15.10;;;8.20;99.90;;;;;;5110884;28;20040;-69
2023/04/09 02:18:36;;;;;;;37.72;16.08;;;8.20;99.90;;;;;;5096457;28;20489;-68
2023/04/09 02:21:04;;;;;;;37.58;15.65;;;8.20;99.90;;;;;;5089835;28;20101;-68
2023/04/09 02:23:32;;;;;;;52.03;16.40;;;8.20;99.90;;;;;;5089765;28;20047;-68
2023/04/09 02:25:58;;;;;;;42.13;16.85;;;8.20;99.90;;;;;;5090845;28;20121;-68
2023/04/09 02:28:24;;;;;;;40.25;16.13;;;8.20;99.90;;;;;;5090029;28;20097;-68
2023/04/09 02:30:49;;;;;;;45.70;17.05;;;8.10;99.90;;;;;;5090662;28;20199;-69
2023/04/09 02:33:15;;;;;;;39.58;15.85;;;8.10;99.90;;;;;;5099089;28;20047;-68
2023/04/09 02:35:41;;;;;;;37.13;15.45;;;8.10;99.90;;;;;;5090224;28;20091;-68
2023/04/09 02:38:12;;;;;;;39.17;15.68;;;8.10;99.90;;;;;;5089750;28;20042;-68
2023/04/09 02:40:40;;;;;;;33.75;15.75;;;8.10;99.90;;;;;;5090605;28;20040;-68
2023/04/09 02:43:05;;;;;;;40.50;16.27;;;8.00;99.90;;;;;;5109377;28;20373;-68
2023/04/09 02:45:31;;;;;;;38.17;14.25;;;8.00;99.90;;;;;;5110458;28;20040;-69
2023/04/09 02:47:57;;;;;;;41.13;16.30;;;8.10;99.90;;;;;;5109957;28;20109;-68
2023/04/09 02:50:22;;;;;;;44.22;16.70;;;8.10;99.90;;;;;;5110396;28;20044;-68
2023/04/09 02:52:48;;;;;;;42.97;17.27;;;8.00;99.90;;;;;;5082961;28;20438;-68
2023/04/09 02:55:14;;;;;;;40.95;15.38;;;8.10;99.90;;;;;;5089787;28;20048;-70
2023/04/09 02:57:40;;;;;;;;;;;8.10;99.90;;;;;;5090440;28;20059;-68
2023/04/09 03:00:06;;;;;;;39.72;16.13;;;8.00;99.90;;;;;;5090411;28;19943;-68
2023/04/09 03:02:32;;;;;;;42.75;16.05;;;8.00;99.90;;;;;;5088345;28;20060;-68
2023/04/09 03:04:58;;;;;;;40.42;15.90;;;8.00;99.90;;;;;;5090299;28;20052;-69
2023/04/09 03:07:23;;;;;;;36.00;16.17;;;7.90;99.90;;;;;;5088856;28;20048;-68
2023/04/09 03:09:49;;;;;;;43.15;17.30;;;7.90;99.90;;;;;;5105400;28;20050;-68
2023/04/09 03:12:15;;;;;;;35.03;15.88;;;8.00;99.90;;;;;;5091305;28;20055;-69
2023/04/09 03:14:40;;;;;;;39.55;15.38;;;8.00;99.90;;;;;;5096615;28;20043;-68
2023/04/09 03:17:06;;;;;;;38.75;17.00;;;8.00;99.90;;;;;;5105511;28;20123;-68
2023/04/09 03:19:32;;;;;;;40.75;15.35;;;8.00;99.90;;;;;;5109461;28;20055;-68
2023/04/09 03:21:57;;;;;;;37.35;15.30;;;8.00;99.90;;;;;;5101437;28;20059;-68
2023/04/09 03:24:23;;;;;;;41.20;16.98;;;8.00;99.90;;;;;;5089339;28;20067;-68
2023/04/09 03:26:49;;;;;;;37.75;15.55;;;8.00;99.90;;;;;;5090171;28;20040;-68
2023/04/09 03:29:15;;;;;;;39.33;16.13;;;8.00;99.90;;;;;;5089785;28;20108;-70
2023/04/09 03:31:40;;;;;;;39.38;14.77;;;8.00;99.90;;;;;;5089076;28;20055;-68
2023/04/09 03:34:06;;;;;;;36.88;14.95;;;8.00;99.90;;;;;;5089326;28;20044;-69
2023/04/09 03:36:32;;;;;;;42.58;15.68;;;8.00;99.90;;;;;;5094234;28;20051;-68
2023/04/09 03:38:59;;;;;;;37.42;15.73;;;8.00;99.90;;;;;;5093809;28;20129;-68
2023/04/09 03:41:25;;;;;;;37.63;15.25;;;8.00;99.90;;;;;;5092886;28;20040;-68
2023/04/09 03:43:51;;;;;;;40.00;16.52;;;8.00;99.90;;;;;;5075472;28;20040;-68
2023/04/09 03:46:17;;;;;;;39.85;15.93;;;8.10;99.90;;;;;;5093250;28;20070;-70
2023/04/09 03:48:44;;;;;;;32.78;14.43;;;8.10;99.90;;;;;;5104455;28;20139;-68
2023/04/09 03:51:14;;;;;;;32.80;13.80;;;8.10;99.90;;;;;;5112875;28;20040;-68
2023/04/09 03:53:40;;;;;;;40.10;15.65;;;8.10;99.90;;;;;;5113350;28;20059;-68
2023/04/09 03:56:07;;;;;;;36.75;16.40;;;8.10;99.90;;;;;;5113739;28;20044;-68
2023/04/09 03:58:33;;;;;;;42.53;16.10;;;8.10;99.90;;;;;;5112843;28;20500;-68
2023/04/09 04:00:59;;;;;;;39.78;16.88;;;8.10;99.90;;;;;;5107039;28;20060;-68
2023/04/09 04:03:24;;;;;;;35.63;14.70;;;8.10;99.90;;;;;;5097320;28;20116;-68
2023/04/09 04:05:50;;;;;;;39.67;16.42;;;8.10;99.90;;;;;;5112779;28;20130;-68
2023/04/09 04:08:16;;;;;;;37.75;16.33;;;8.10;99.90;;;;;;5096635;28;20405;-70
2023/04/09 04:10:41;;;;;;;38.88;16.40;;;8.10;99.90;;;;;;5092934;28;20073;-68
2023/04/09 04:13:07;;;;;;;39.35;15.95;;;8.10;99.90;;;;;;5091636;28;20078;-68
2023/04/09 04:15:39;;;;;;;39.60;16.73;;;8.00;99.90;;;;;;5092382;28;20056;-69
2023/04/09 04:18:05;;;;;;;39.25;16.35;;;8.00;99.90;;;;;;5091630;28;20511;-68
2023/04/09 04:20:34;;;;;;;40.58;16.23;;;8.00;99.90;;;;;;5092430;28;20048;-68
2023/04/09 04:23:00;;;;;;;36.95;16.73;;;8.00;99.90;;;;;;5103630;28;20128;-68
2023/04/09 04:25:25;;;;;;;36.90;16.30;;;8.10;99.90;;;;;;5111807;28;20476;-68
2023/04/09 04:27:51;;;;;;;34.67;16.00;;;8.10;99.90;;;;;;5088066;28;20040;-68
2023/04/09 04:30:17;;;;;;;41.58;16.60;;;8.00;99.90;;;;;;5112616;28;20048;-69
2023/04/09 04:32:43;;;;;;;37.30;15.50;;;8.10;99.90;;;;;;5093540;28;20040;-68
2023/04/09 04:35:08;;;;;;;41.05;16.60;;;8.00;99.90;;;;;;5095037;28;20485;-68
2023/04/09 04:37:34;;;;;;;32.88;14.98;;;8.10;99.90;;;;;;5108845;28;20048;-68
2023/04/09 04:40:01;;;;;;;35.67;14.02;;;8.10;99.90;;;;;;5092897;28;20493;-68
2023/04/09 04:42:27;;;;;;;38.22;15.43;;;8.00;99.90;;;;;;5091919;28;20068;-68
2023/04/09 04:44:52;;;;;;;35.47;15.35;;;8.00;99.90;;;;;;5092456;28;20392;-68
2023/04/09 04:47:18;;;;;;;37.65;15.07;;;8.00;99.90;;;;;;5101184;28;20039;-69
2023/04/09 04:49:44;;;;;;;35.92;15.02;;;8.10;99.90;;;;;;5112442;28;20114;-68
2023/04/09 04:52:10;;;;;;;36.92;15.27;;;8.10;99.90;;;;;;5111694;28;20054;-68
2023/04/09 04:54:36;;;;;;;36.15;14.48;;;8.10;99.90;;;;;;5112174;28;20036;-68
2023/04/09 04:57:02;;;;;;;30.77;13.82;;;8.10;99.90;;;;;;5112331;28;20163;-68
2023/04/09 04:59:28;;;;;;;40.30;15.68;;;8.10;99.90;;;;;;5111918;28;20047;-68
2023/04/09 05:01:53;;;;;;;34.83;15.07;;;8.00;99.90;;;;;;5108675;28;20062;-68
2023/04/09 05:04:19;;;;;;;35.40;15.38;;;8.00;99.90;;;;;;5064138;28;20048;-69
2023/04/09 05:06:45;;;;;;;33.85;14.13;;;8.00;99.90;;;;;;5108427;28;20171;-68
2023/04/09 05:09:10;;;;;;;32.33;14.63;;;8.00;99.90;;;;;;5098794;28;20055;-68
2023/04/09 05:11:36;;;;;;;37.50;13.93;;;8.00;99.90;;;;;;5092827;28;20059;-68
2023/04/09 05:14:03;;;;;;;37.80;14.25;;;8.00;99.90;;;;;;5111775;28;20039;-68
2023/04/09 05:16:29;;;;;;;34.00;14.00;;;8.00;99.90;;;;;;5092400;28;20400;-69
2023/04/09 05:18:55;;;;;;;32.72;14.70;;;8.00;99.90;;;;;;5111582;28;20048;-68
2023/04/09 05:21:20;;;;;;;33.92;15.00;;;8.00;99.90;;;;;;5092611;28;20039;-69
2023/04/09 05:23:46;;;;;;;35.30;13.98;;;8.00;99.90;;;;;;5112175;28;20055;-68
2023/04/09 05:26:12;;;;;;;37.78;15.35;;;8.00;99.90;;;;;;5112007;28;20051;-68
2023/04/09 05:28:37;;;;;;;35.13;14.05;;;8.10;99.90;;;;;;5111665;28;20150;-68
2023/04/09 05:31:03;;;;;;;35.85;14.18;;;8.10;99.90;;;;;;5093912;28;20047;-68
2023/04/09 05:33:31;;;;;;;39.55;15.18;;;8.10;99.90;;;;;;5097658;28;20051;-68
2023/04/09 05:35:57;;;;;;;39.10;17.25;;;8.10;99.90;;;;;;5090566;28;20059;-68
2023/04/09 05:38:22;;;;;;;39.30;15.82;;;8.10;99.90;;;;;;5091461;28;20048;-70
2023/04/09 05:40:48;;;;;;;41.90;15.93;;;8.10;99.90;;;;;;5091362;28;20040;-68
2023/04/09 05:43:14;;;;;;;42.20;15.95;;;8.10;99.90;;;;;;5091329;28;20094;-68
2023/04/09 05:45:40;;;;;;;38.25;15.40;;;8.10;99.90;;;;;;5078510;28;20495;-68
2023/04/09 05:48:05;;;;;;;40.83;16.95;;;8.20;99.90;;;;;;5110452;28;20582;-68
2023/04/09 05:50:31;;;;;;;34.28;14.25;;;8.20;99.90;;;;;;5108669;28;20070;-68
2023/04/09 05:52:57;;;;;;;38.63;16.20;;;8.20;99.90;;;;;;5096451;28;20638;-68
2023/04/09 05:55:22;;;;;;;37.55;16.60;;;8.20;99.90;;;;;;5091236;28;20484;-68
2023/04/09 05:57:51;;;;;;;40.78;15.93;;;8.20;99.90;;;;;;5101470;28;20103;-68
2023/04/09 06:00:17;;;;;;;35.13;15.57;;;8.20;99.90;;;;;;5111045;28;20043;-68
2023/04/09 06:02:43;;;;;;;38.08;16.23;;;8.20;99.90;;;;;;5109217;28;20051;-68
2023/04/09 06:05:09;;;;;;;33.97;15.70;;;8.20;99.90;;;;;;5111338;28;20054;-68
2023/04/09 06:07:35;;;;;;;39.58;16.50;;;8.10;99.90;;;;;;5076242;28;20046;-68
2023/04/09 06:10:01;;;;;;;39.05;17.55;;;8.10;99.90;;;;;;5090765;28;20131;-68
2023/04/09 06:12:27;;;;;;;39.70;16.38;;;8.00;99.90;;;;;;5108243;28;20036;-70
2023/04/09 06:14:53;;;;;;;37.92;15.80;;;8.00;99.90;;;;;;5111400;28;20179;-68
2023/04/09 06:17:18;;;;;;;43.70;16.35;;;8.00;99.90;;;;;;5090426;28;20157;-68
2023/04/09 06:19:44;;;;;;;40.15;16.98;;;8.00;99.90;;;;;;5090400;28;20048;-68
2023/04/09 06:22:10;;;;;;;41.05;16.42;;;7.90;99.90;;;;;;5099958;28;20497;-68
2023/04/09 06:24:35;;;;;;;36.08;14.48;;;7.90;99.90;;;;;;5110710;28;20047;-68
2023/04/09 06:27:01;;;;;;;34.17;15.00;;;8.00;99.90;;;;;;5110650;28;20043;-68
2023/04/09 06:29:27;;;;;;;36.10;15.23;;;7.90;99.90;;;;;;5107479;28;20118;-70
2023/04/09 06:31:53;;;;;;;40.55;17.48;;;8.00;99.90;;;;;;5110190;28;20485;-68
2023/04/09 06:34:18;;;;;;;43.85;15.05;;;8.00;99.90;;;;;;5107572;28;20048;-68
2023/04/09 06:36:44;;;;;;;40.65;15.98;;;8.00;99.90;;;;;;5104237;28;20040;-68
2023/04/09 06:39:10;;;;;;;38.33;15.13;;;8.00;99.90;;;;;;5108376;28;20058;-68
2023/04/09 06:41:36;;;;;;;40.50;16.50;;;7.90;99.90;;;;;;5110387;28;20126;-69
2023/04/09 06:44:01;;;;;;;39.92;17.45;;;8.00;99.90;;;;;;5111056;28;20569;-68
2023/04/09 06:46:27;;;;;;;36.85;16.35;;;8.00;99.90;;;;;;5088777;28;20051;-70
2023/04/09 06:48:53;;;;;;;43.03;17.42;;;8.00;99.90;;;;;;5109439;28;20040;-68
2023/04/09 06:51:18;;;;;;;40.10;18.45;;;8.00;99.90;;;;;;5108260;28;20584;-74
2023/04/09 06:53:46;;;;;;;43.90;18.02;;;8.00;99.90;;;;;;5106934;28;20047;-72
2023/04/09 06:56:12;;;;;;;38.40;16.30;;;8.10;99.90;;;;;;5092747;28;20087;-71
2023/04/09 06:58:38;;;;;;;38.58;16.80;;;8.10;99.90;;;;;;5109919;28;20054;-69
2023/04/09 07:01:04;;;;;;;40.78;16.92;;;8.10;99.90;;;;;;5109991;28;20056;-84
2023/04/09 07:03:30;;;;;;;40.10;16.50;;;8.30;99.90;;;;;;5109652;28;20442;-69
2023/04/09 07:05:56;;;;;;;38.80;17.10;;;8.30;99.90;;;;;;5109755;28;20051;-69
2023/04/09 07:08:22;;;;;;;41.25;16.00;;;8.30;99.90;;;;;;5110565;28;20073;-69
2023/04/09 07:10:48;;;;;;;35.95;15.95;;;8.40;99.90;;;;;;5111760;28;20481;-69
2023/04/09 07:13:14;;;;;;;43.10;17.58;;;8.40;99.90;;;;;;5114711;28;20050;-74
2023/04/09 07:15:39;;;;;;;43.15;16.85;;;8.40;99.90;;;;;;5110916;28;20071;-79
2023/04/09 07:18:05;;;;;;;43.83;18.65;;;8.50;99.90;;;;;;5106316;28;20074;-71
2023/04/09 07:20:33;;;;;;;42.72;18.90;;;8.50;99.90;;;;;;5111043;28;20108;-72
2023/04/09 07:22:59;;;;;;;41.70;17.48;;;8.50;99.90;;;;;;5097031;28;20058;-71
2023/04/09 07:25:25;;;;;;;42.90;17.67;;;8.50;99.90;;;;;;5099786;28;20040;-70
2023/04/09 07:27:50;;;;;;;;;;;8.60;99.90;;;;;;5093544;28;20627;-71
2023/04/09 07:30:16;;;;;;;43.88;17.60;;;8.60;99.90;;;;;;5101024;28;19974;-71
2023/04/09 07:32:42;;;;;;;50.83;18.70;;;8.60;99.90;;;;;;5100044;28;20040;-71
2023/04/09 07:35:08;;;;;;;43.75;18.23;;;8.60;99.90;;;;;;5114298;28;20035;-70
2023/04/09 07:37:34;;;;;;;;;;;8.70;99.90;;;;;;5093212;28;20048;-71
2023/04/09 07:40:01;;;;;;;45.92;18.52;;;8.70;99.90;;;;;;5096008;28;19968;-71
2023/04/09 07:42:28;;;;;;;42.35;18.95;;;8.70;99.90;;;;;;5108687;28;20044;-71
2023/04/09 07:44:55;;;;;;;47.35;18.70;;;8.80;99.90;;;;;;5093035;28;20050;-71
2023/04/09 07:47:22;;;;;;;43.13;18.83;;;8.80;99.90;;;;;;5074181;28;20059;-71
2023/04/09 07:49:48;;;;;;;45.58;17.85;;;8.80;99.90;;;;;;5094249;28;20494;-70
2023/04/09 07:52:14;;;;;;;42.72;18.05;;;8.80;99.90;;;;;;5095014;28;20047;-71
2023/04/09 07:54:40;;;;;;;45.97;19.15;;;8.90;99.90;;;;;;5098262;28;20086;-71
2023/04/09 07:57:06;;;;;;;39.97;17.13;;;8.90;99.90;;;;;;5093262;28;20090;-71
2023/04/09 07:59:32;;;;;;;;;;;8.90;99.90;;;;;;5093853;28;20055;-71
2023/04/09 08:01:58;;;;;;;38.63;17.00;;;8.80;99.90;;;;;;5090573;28;20020;-71
2023/04/09 08:04:24;;;;;;;41.67;18.05;;;8.80;99.90;;;;;;5100801;28;20087;-71
2023/04/09 08:06:50;;;;;;;42.33;18.42;;;8.80;99.90;;;;;;5099821;28;20601;-71
2023/04/09 08:09:16;;;;;;;41.38;17.27;;;8.90;99.90;;;;;;5113655;28;20556;-70
2023/04/09 08:11:44;;;;;;;;;;;8.80;99.90;;;;;;5094940;28;20035;-70
2023/04/09 08:14:13;;;;;;;39.55;16.13;;;8.90;99.90;;;;;;5105623;28;19920;-70
2023/04/09 08:16:40;;;;;;;45.75;17.15;;;9.00;99.90;;;;;;5108677;28;20044;-69
2023/04/09 08:19:07;;;;;;;47.35;18.00;;;9.00;99.90;;;;;;5092570;28;20416;-70
2023/04/09 08:21:33;;;;;;;36.97;16.67;;;9.10;99.90;;;;;;5095108;28;20476;-80
2023/04/09 08:24:03;;;;;;;40.75;17.70;;;9.20;99.90;;;;;;5106196;28;20055;-66
2023/04/09 08:26:29;;;;;;;41.55;16.67;;;9.20;99.90;;;;;;5105744;28;20048;-70
2023/04/09 08:28:55;;;;;;;40.83;17.08;;;9.40;99.90;;;;;;5111938;28;20051;-68
2023/04/09 08:31:21;;;;;;;42.17;19.17;;;9.40;99.90;;;;;;5101821;28;20045;-67
2023/04/09 08:33:47;;;;;;;41.75;16.13;;;9.40;99.90;;;;;;5101736;28;20039;-69
2023/04/09 08:36:12;;;;;;;43.50;15.93;;;9.50;99.90;;;;;;5101296;28;20184;-69
2023/04/09 08:38:39;;;;;;;39.75;16.88;;;9.60;99.90;;;;;;5104774;28;20084;-70
2023/04/09 08:41:05;;;;;;;38.50;16.20;;;9.70;99.90;;;;;;5105393;27;20112;-70
2023/04/09 08:43:35;;;;;;;37.88;16.45;;;9.70;99.90;;;;;;5098490;28;20424;-70
2023/04/09 08:46:02;;;;;;;35.90;15.57;;;9.80;99.90;;;;;;5089978;28;20063;-69
2023/04/09 08:48:28;;;;;;;37.78;16.20;;;9.80;99.90;;;;;;5092259;28;20048;-69
2023/04/09 08:50:54;;;;;;;39.83;16.60;;;9.90;99.90;;;;;;5079057;28;20040;-69
2023/04/09 08:53:23;;;;;;;37.13;15.65;;;9.90;99.90;;;;;;5093703;28;20055;-69
2023/04/09 08:55:49;;;;;;;39.90;17.95;;;10.00;99.90;;;;;;5111520;28;20132;-69
2023/04/09 08:58:14;;;;;;;34.67;14.90;;;10.20;99.90;;;;;;5111987;28;20623;-69
2023/04/09 09:00:40;;;;;;;34.08;16.08;;;10.30;99.90;;;;;;5106972;28;20123;-69
2023/04/09 09:03:14;;;;;;;40.72;17.13;;;10.30;99.90;;;;;;5105450;28;20055;-69
2023/04/09 09:05:41;;;;;;;38.63;15.55;;;10.30;99.90;;;;;;5099387;28;20044;-76
2023/04/09 09:08:12;;;;;;;37.58;15.98;;;10.40;99.90;;;;;;5086198;28;20047;-71
2023/04/09 09:10:43;;;;;;;36.72;15.13;;;10.50;99.90;;;;;;5081374;28;20130;-71
2023/04/09 09:13:26;;;;;;;34.20;16.00;;;10.60;99.90;;;;;;5098151;28;20035;-69
2023/04/09 09:15:56;;;;;;;35.90;15.88;;;10.60;99.90;;;;;;5110557;28;20044;-70
2023/04/09 09:18:42;;;;;;;37.97;15.20;;;10.70;99.90;;;;;;5097305;28;20464;-69
2023/04/09 09:21:16;;;;;;;38.05;15.15;;;10.70;99.90;;;;;;5087776;28;20052;-69
2023/04/09 09:23:43;;;;;;;37.10;17.23;;;10.80;99.90;;;;;;5099779;28;20050;-70
2023/04/09 09:26:13;;;;;;;39.45;16.60;;;10.90;99.90;;;;;;5099473;28;20108;-70
2023/04/09 09:28:39;;;;;;;34.90;15.32;;;11.00;99.90;;;;;;5095723;28;20063;-70
2023/04/09 09:31:08;;;;;;;;;;;11.00;99.90;;;;;;5096732;28;20047;-70
2023/04/09 09:33:34;;;;;;;36.22;15.38;;;11.10;99.90;;;;;;5105050;28;19966;-70
2023/04/09 09:36:02;;;;;;;32.85;13.15;;;11.10;99.90;;;;;;5089474;28;20056;-69
2023/04/09 09:38:28;;;;;;;36.88;15.60;;;11.20;99.90;;;;;;5101437;28;20047;-68
2023/04/09 09:40:54;;;;;;;41.45;15.32;;;11.20;99.90;;;;;;5110342;28;20048;-68
2023/04/09 09:43:20;;;;;;;32.10;14.32;;;11.30;99.90;;;;;;5102694;28;20061;-69
2023/04/09 09:45:46;;;;;;;;;;;11.30;99.90;;;;;;5101895;28;20085;-70
2023/04/09 09:48:12;;;;;;;32.40;14.52;;;11.30;99.90;;;;;;5089709;28;19955;-72
2023/04/09 09:50:40;;;;;;;31.25;14.02;;;11.40;99.90;;;;;;5074551;28;20512;-73
2023/04/09 09:53:07;;;;;;;35.88;15.00;;;11.50;99.90;;;;;;5090244;28;20052;-71
2023/04/09 09:55:38;;;;;;;34.47;15.43;;;11.60;99.90;;;;;;5082226;28;20051;-72
2023/04/09 09:58:25;;;;;;;33.42;14.20;;;11.70;99.90;;;;;;5074446;28;20105;-72
2023/04/09 10:00:52;;;;;;;33.53;14.57;;;11.90;99.90;;;;;;5098710;28;20048;-73
2023/04/09 10:03:26;;;;;;;37.72;15.43;;;12.00;99.90;;;;;;5083884;28;20051;-72
2023/04/09 10:05:52;;;;;;;35.80;15.95;;;12.10;99.90;;;;;;5078616;28;20055;-70
2023/04/09 10:08:20;;;;;;;33.67;14.52;;;12.20;99.90;;;;;;5108029;28;20051;-69
2023/04/09 10:10:47;;;;;;;33.28;14.90;;;12.30;99.90;;;;;;5110562;28;20047;-70
2023/04/09 10:13:33;;;;;;;30.60;14.02;;;12.40;99.90;;;;;;5091082;28;20040;-70
2023/04/09 10:16:00;;;;;;;29.13;13.23;;;12.50;99.90;;;;;;5092205;28;20058;-69
2023/04/09 10:18:27;;;;;;;27.65;13.23;;;12.60;99.90;;;;;;5077477;28;20066;-70
2023/04/09 10:21:06;;;;;;;31.60;13.88;;;12.80;99.90;;;;;;5088232;28;20047;-69
2023/04/09 10:23:37;;;;;;;29.23;13.57;;;12.90;99.90;;;;;;5099999;28;20039;-70
2023/04/09 10:26:04;;;;;;;31.60;13.82;;;13.10;99.90;;;;;;5110444;28;20123;-73
2023/04/09 10:28:30;;;;;;;30.58;14.35;;;13.10;99.90;;;;;;5095064;28;20556;-70
2023/04/09 10:30:57;;;;;;;31.23;14.27;;;13.10;99.90;;;;;;5095117;28;20123;-69
2023/04/09 10:33:25;;;;;;;29.52;14.15;;;13.10;99.90;;;;;;5089547;28;20036;-69
2023/04/09 10:35:53;;;;;;;28.38;12.77;;;13.10;99.90;;;;;;5089073;28;20048;-69
2023/04/09 10:38:39;;;;;;;30.10;13.77;;;13.20;99.90;;;;;;5093348;28;20122;-69
2023/04/09 10:41:26;;;;;;;29.10;11.18;;;13.40;99.90;;;;;;5095505;28;20139;-69
2023/04/09 10:43:52;;;;;;;30.35;12.93;;;13.40;99.90;;;;;;5087051;28;20503;-69
2023/04/09 10:46:32;;;;;;;28.58;13.02;;;13.60;99.90;;;;;;5107208;28;20130;-70
2023/04/09 10:49:12;;;;;;;31.25;13.80;;;13.60;99.90;;;;;;5114058;28;20119;-69
2023/04/09 10:51:38;;;;;;;30.00;13.20;;;13.70;99.90;;;;;;5113173;28;20509;-69
2023/04/09 10:54:32;;;;;;;30.00;13.25;;;13.70;99.90;;;;;;5114360;28;20169;-69
2023/04/09 10:57:10;;;;;;;26.63;12.65;;;13.80;99.90;;;;;;5111064;28;20051;-70
2023/04/09 10:59:41;;;;;;;29.33;13.35;;;13.80;99.90;;;;;;5114723;28;20044;-69
2023/04/09 11:02:09;;;;;;;27.77;13.05;;;13.90;99.90;;;;;;5076197;28;20052;-69
2023/04/09 11:05:08;;;;;;;25.10;12.77;;;14.00;99.90;;;;;;5072400;28;20056;-69
2023/04/09 11:07:39;;;;;;;29.83;13.98;;;14.20;99.90;;;;;;5063327;28;20485;-70
2023/04/09 11:10:05;;;;;;;30.30;12.98;;;14.40;99.90;;;;;;5059127;28;20119;-69
2023/04/09 11:12:32;;;;;;;28.15;12.77;;;14.60;99.90;;;;;;5062267;28;20053;-70
2023/04/09 11:14:57;;;;;;;25.80;12.32;;;14.70;99.90;;;;;;5070883;28;20383;-70
2023/04/09 11:17:23;;;;;;;27.13;12.40;;;14.70;99.90;;;;;;5072196;28;20051;-68
2023/04/09 11:19:49;;;;;;;25.70;12.85;;;14.50;99.90;;;;;;5067711;28;20051;-69
2023/04/09 11:22:15;;;;;;;26.77;12.32;;;14.40;99.90;;;;;;5060726;28;20049;-69
2023/04/09 11:24:45;;;;;;;24.00;12.23;;;14.50;99.90;;;;;;5073269;28;20080;-69
2023/04/09 11:27:12;;;;;;;24.63;11.48;;;14.80;99.90;;;;;;5063559;28;20548;-69
2023/04/09 11:29:38;;;;;;;25.50;11.75;;;15.10;99.90;;;;;;5069499;28;20036;-69
2023/04/09 11:32:06;;;;;;;;;;;15.50;99.90;;;;;;5059096;28;20052;-73
2023/04/09 11:34:31;;;;;;;21.83;11.38;;;15.80;99.90;;;;;;5060150;28;19927;-69
2023/04/09 11:36:57;;;;;;;24.05;11.10;;;16.20;99.90;;;;;;5051806;28;20041;-68
2023/04/09 11:39:23;;;;;;;;;;;16.50;99.90;;;;;;5072890;28;20439;-68
2023/04/09 11:41:49;;;;;;;31.05;13.13;;;16.50;99.90;;;;;;5070822;28;19969;-67
2023/04/09 11:44:15;;;;;;;22.90;11.93;;;16.20;99.90;;;;;;5068642;28;20098;-67
2023/04/09 11:46:41;;;;;;;;;;;16.10;99.90;;;;;;5053168;28;20067;-68
2023/04/09 11:49:07;;;;;;;24.00;11.05;;;16.10;99.90;;;;;;5067283;28;20033;-67
2023/04/09 11:51:34;;;;;;;24.50;11.65;;;16.10;99.90;;;;;;5072046;28;20032;-68
2023/04/09 11:54:04;;;;;;;25.40;12.40;;;16.10;99.90;;;;;;5070065;28;20548;-69
2023/04/09 11:56:31;;;;;;;25.33;11.50;;;16.40;99.90;;;;;;5064661;28;20094;-69
2023/04/09 11:58:58;;;;;;;23.33;11.07;;;16.60;99.90;;;;;;5072305;28;20048;-68
2023/04/09 12:01:24;;;;;;;23.77;11.10;;;16.70;99.90;;;;;;5079818;28;20134;-67
2023/04/09 12:03:53;;;;;;;28.10;12.20;;;16.70;99.90;;;;;;5094486;28;20048;-68
2023/04/09 12:06:23;;;;;;;22.08;10.80;;;16.80;99.90;;;;;;5105874;28;20051;-68
2023/04/09 12:08:56;;;;;;;21.88;11.30;;;16.80;99.90;;;;;;5113088;28;20390;-69
2023/04/09 12:11:31;;;;;;;24.50;11.20;;;16.80;99.90;;;;;;5113003;28;20039;-67
2023/04/09 12:14:04;;;;;;;19.00;9.55;;;17.10;99.90;;;;;;5112833;28;20434;-69
2023/04/09 12:16:31;;;;;;;22.73;10.75;;;17.30;97.90;;;;;;5112575;28;20063;-69
2023/04/09 12:19:06;;;;;;;21.95;10.23;;;17.00;97.50;;;;;;5112147;28;20646;-68
2023/04/09 12:21:57;;;;;;;21.40;10.77;;;16.60;97.00;;;;;;5109360;28;20040;-67
2023/04/09 12:24:24;;;;;;;20.08;9.60;;;16.50;97.90;;;;;;5081639;28;20055;-68
2023/04/09 12:26:51;;;;;;;22.02;10.25;;;16.70;98.50;;;;;;5113081;28;20056;-69
2023/04/09 12:29:19;;;;;;;24.48;10.95;;;17.10;97.40;;;;;;5098367;28;20051;-68
2023/04/09 12:31:46;;;;;;;18.15;9.50;;;17.50;96.60;;;;;;5112097;28;20485;-69
2023/04/09 12:34:12;;;;;;;19.83;10.05;;;17.80;95.80;;;;;;5098388;28;20039;-68
2023/04/09 12:36:40;;;;;;;21.75;10.07;;;17.90;94.70;;;;;;5111629;28;20043;-69
2023/04/09 12:39:08;;;;;;;24.35;9.73;;;18.00;94.30;;;;;;5112425;28;20040;-69
2023/04/09 12:41:34;;;;;;;22.75;10.30;;;18.30;94.00;;;;;;5112086;28;20043;-68